createdAt,value
2023-05-14T00:01:20.177Z,8.30
2023-05-14T00:02:53.545Z,8.20
2023-05-14T00:04:26.852Z,8.20
2023-05-14T00:06:01.264Z,8.20
2023-05-14T00:07:34.454Z,8.20
2023-05-14T00:09:07.598Z,8.20
2023-05-14T00:10:39.799Z,8.10
2023-05-14T00:12:12.962Z,8.10
2023-05-14T00:13:46.326Z,8.10
2023-05-14T00:15:18.878Z,8.10
2023-05-14T00:16:52.307Z,8.10
2023-05-14T00:18:25.461Z,8.10
2023-05-14T00:19:59.397Z,8.10
2023-05-14T00:21:33.813Z,8.00
2023-05-14T00:23:07.036Z,8.00
2023-05-14T00:24:40.108Z,8.00
2023-05-14T00:26:13.214Z,8.00
2023-05-14T00:27:46.780Z,8.00
2023-05-14T00:29:19.864Z,8.00
2023-05-14T00:30:52.982Z,7.90
2023-05-14T00:32:25.422Z,7.90
2023-05-14T00:33:58.540Z,7.90
2023-05-14T00:35:30.877Z,7.90
2023-05-14T00:37:05.633Z,7.90
2023-05-14T00:38:38.754Z,7.90
2023-05-14T00:40:12.935Z,7.80
2023-05-14T00:41:46.156Z,7.80
2023-05-14T00:43:19.763Z,7.80
2023-05-14T00:44:53.096Z,7.80
2023-05-14T00:46:26.554Z,7.70
2023-05-14T00:47:59.948Z,7.70
2023-05-14T00:49:32.359Z,7.70
2023-05-14T00:51:06.452Z,7.70
2023-05-14T00:52:41.955Z,7.70
2023-05-14T00:54:15.969Z,7.70
2023-05-14T00:55:51.302Z,7.60
2023-05-14T00:57:24.922Z,7.60
2023-05-14T00:58:58.259Z,7.60
2023-05-14T01:00:30.725Z,7.60
2023-05-14T01:02:03.973Z,7.60
2023-05-14T01:03:37.613Z,7.50
2023-05-14T01:05:09.871Z,7.50
2023-05-14T01:07:00.953Z,7.50
2023-05-14T01:08:51.594Z,7.40
2023-05-14T01:10:35.676Z,7.40
2023-05-14T01:12:18.256Z,7.40
2023-05-14T01:14:03.230Z,7.40
2023-05-14T01:15:39.471Z,7.40
2023-05-14T01:17:13.445Z,7.40
2023-05-14T01:18:51.510Z,7.30
2023-05-14T01:20:24.345Z,7.30
2023-05-14T01:21:59.058Z,7.30
2023-05-14T01:23:32.272Z,7.30
2023-05-14T01:25:05.690Z,7.30
2023-05-14T01:26:39.051Z,7.30
2023-05-14T01:28:18.597Z,7.30
2023-05-14T01:30:00.918Z,7.20
2023-05-14T01:31:39.970Z,7.20
2023-05-14T01:33:18.043Z,7.20
2023-05-14T01:34:52.054Z,7.20
2023-05-14T01:36:25.416Z,7.20
2023-05-14T01:38:02.793Z,7.20
2023-05-14T01:39:38.808Z,7.20
2023-05-14T01:41:13.007Z,7.10
2023-05-14T01:42:46.760Z,7.10
2023-05-14T01:44:19.576Z,7.10
2023-05-14T01:45:52.961Z,7.10
2023-05-14T01:47:26.184Z,7.10
2023-05-14T01:48:59.351Z,7.10
2023-05-14T01:50:32.731Z,7.10
2023-05-14T01:52:08.441Z,7.10
2023-05-14T01:53:41.979Z,7.00
2023-05-14T01:55:15.727Z,7.00
2023-05-14T01:56:48.822Z,7.00
2023-05-14T01:58:20.924Z,7.00
2023-05-14T01:59:54.552Z,7.00
2023-05-14T02:01:26.810Z,7.00
2023-05-14T02:03:00.128Z,6.90
2023-05-14T02:04:32.533Z,7.00
2023-05-14T02:06:05.872Z,6.90
2023-05-14T02:07:39.131Z,6.90
2023-05-14T02:09:13.775Z,6.90
2023-05-14T02:10:46.970Z,6.80
2023-05-14T02:12:20.068Z,6.90
2023-05-14T02:13:53.213Z,6.80
2023-05-14T02:15:26.318Z,6.80
2023-05-14T02:16:59.576Z,6.80
2023-05-14T02:18:31.789Z,6.80
2023-05-14T02:20:06.085Z,6.80
2023-05-14T02:21:49.790Z,6.70
2023-05-14T02:23:34.246Z,6.70
2023-05-14T02:25:15.459Z,6.70
2023-05-14T02:26:48.844Z,6.70
2023-05-14T02:28:21.229Z,6.70
2023-05-14T02:29:54.596Z,6.70
2023-05-14T02:31:27.703Z,6.60
2023-05-14T02:33:01.152Z,6.60
2023-05-14T02:34:34.332Z,6.70
2023-05-14T02:36:08.338Z,6.60
2023-05-14T02:37:40.534Z,6.60
2023-05-14T02:39:13.571Z,6.60
2023-05-14T02:40:48.033Z,6.60
2023-05-14T02:42:21.091Z,6.50
2023-05-14T02:43:54.982Z,6.50
2023-05-14T02:45:27.241Z,6.50
2023-05-14T02:47:00.475Z,6.50
2023-05-14T02:48:33.656Z,6.50
2023-05-14T02:50:08.534Z,6.40
2023-05-14T02:51:40.710Z,6.40
2023-05-14T02:53:13.886Z,6.40
2023-05-14T02:54:47.033Z,6.40
2023-05-14T02:56:22.256Z,6.40
2023-05-14T02:57:56.692Z,6.40
2023-05-14T02:59:31.487Z,6.40
2023-05-14T03:01:05.569Z,6.30
2023-05-14T03:02:39.652Z,6.30
2023-05-14T03:04:13.394Z,6.30
2023-05-14T03:05:46.512Z,6.30
2023-05-14T03:07:18.669Z,6.30
2023-05-14T03:08:51.713Z,6.20
2023-05-14T03:10:25.254Z,6.20
2023-05-14T03:11:59.926Z,6.20
2023-05-14T03:13:33.311Z,6.20
2023-05-14T03:15:06.855Z,6.20
2023-05-14T03:16:42.171Z,6.10
2023-05-14T03:18:15.664Z,6.10
2023-05-14T03:19:48.791Z,6.10
2023-05-14T03:21:20.964Z,6.10
2023-05-14T03:22:56.040Z,6.10
2023-05-14T03:24:29.146Z,6.10
2023-05-14T03:26:03.621Z,6.00
2023-05-14T03:27:38.044Z,6.00
2023-05-14T03:29:11.429Z,6.00
2023-05-14T03:30:44.596Z,6.00
2023-05-14T03:32:18.571Z,6.00
2023-05-14T03:33:51.757Z,6.00
2023-05-14T03:35:25.005Z,6.00
2023-05-14T03:36:58.819Z,6.00
2023-05-14T03:38:31.907Z,5.90
2023-05-14T03:40:06.543Z,5.90
2023-05-14T03:41:39.718Z,5.90
2023-05-14T03:43:14.201Z,5.90
2023-05-14T03:44:47.708Z,5.90
2023-05-14T03:46:19.889Z,5.90
2023-05-14T03:47:53.047Z,5.90
2023-05-14T03:49:26.772Z,5.90
2023-05-14T03:51:00.559Z,5.80
2023-05-14T03:52:33.800Z,5.80
2023-05-14T03:54:09.100Z,5.80
2023-05-14T03:55:42.383Z,5.80
2023-05-14T03:57:17.665Z,5.80
2023-05-14T03:58:51.092Z,5.80
2023-05-14T04:00:24.882Z,5.80
2023-05-14T04:01:59.115Z,5.80
2023-05-14T04:03:32.674Z,5.80
2023-05-14T04:05:05.624Z,5.80
2023-05-14T04:06:38.761Z,5.80
2023-05-14T04:08:11.884Z,5.70
2023-05-14T04:09:45.107Z,5.70
2023-05-14T04:11:18.510Z,5.70
2023-05-14T04:12:51.812Z,5.70
2023-05-14T04:14:26.440Z,5.70
2023-05-14T04:15:59.599Z,5.70
2023-05-14T04:17:34.571Z,5.70
2023-05-14T04:19:08.464Z,5.80
2023-05-14T04:20:42.346Z,5.70
2023-05-14T04:22:15.522Z,5.70
2023-05-14T04:23:47.633Z,5.70
2023-05-14T04:25:21.046Z,5.70
2023-05-14T04:26:54.138Z,5.70
2023-05-14T04:28:27.329Z,5.70
2023-05-14T04:30:01.786Z,5.70
2023-05-14T04:31:34.020Z,5.70
2023-05-14T04:33:07.175Z,5.60
2023-05-14T04:34:41.074Z,5.60
2023-05-14T04:36:14.741Z,5.60
2023-05-14T04:37:49.027Z,5.60
2023-05-14T04:39:22.289Z,5.60
2023-05-14T04:40:55.342Z,5.60
2023-05-14T04:42:28.435Z,5.70
2023-05-14T04:44:01.861Z,5.60
2023-05-14T04:45:36.408Z,5.60
2023-05-14T04:47:09.539Z,5.60
2023-05-14T04:48:42.772Z,5.60
2023-05-14T04:50:16.416Z,5.60
2023-05-14T04:51:49.541Z,5.60
2023-05-14T04:53:22.719Z,5.60
2023-05-14T04:54:55.200Z,5.60
2023-05-14T04:56:28.338Z,5.60
2023-05-14T04:58:00.547Z,5.60
2023-05-14T04:59:33.671Z,5.60
2023-05-14T05:01:08.259Z,5.60
2023-05-14T05:02:41.584Z,5.60
2023-05-14T05:04:14.921Z,5.60
2023-05-14T05:05:48.114Z,5.60
2023-05-14T05:07:21.292Z,5.60
2023-05-14T05:08:54.412Z,5.60
2023-05-14T05:10:27.595Z,5.60
2023-05-14T05:12:01.408Z,5.70
2023-05-14T05:13:34.558Z,5.70
2023-05-14T05:15:10.282Z,5.70
2023-05-14T05:16:45.353Z,5.70
2023-05-14T05:18:18.466Z,5.70
2023-05-14T05:19:51.639Z,5.70
2023-05-14T05:21:25.485Z,5.70
2023-05-14T05:22:59.421Z,5.70
2023-05-14T05:24:32.589Z,5.80
2023-05-14T05:26:05.855Z,5.70
2023-05-14T05:27:57.568Z,5.80
2023-05-14T05:29:30.849Z,5.90
2023-05-14T05:31:04.176Z,5.90
2023-05-14T05:32:38.871Z,5.90
2023-05-14T05:34:12.059Z,6.00
2023-05-14T05:35:45.470Z,6.00
2023-05-14T05:37:17.713Z,6.00
2023-05-14T05:38:51.206Z,6.10
2023-05-14T05:40:24.566Z,6.10
2023-05-14T05:41:57.957Z,6.20
2023-05-14T05:43:31.078Z,6.30
2023-05-14T05:45:04.635Z,6.30
2023-05-14T05:46:38.613Z,6.40
2023-05-14T05:48:13.085Z,6.50
2023-05-14T05:49:46.210Z,6.50
2023-05-14T05:51:19.268Z,6.60
2023-05-14T05:52:52.550Z,6.70
2023-05-14T05:54:27.069Z,6.80
2023-05-14T05:56:00.368Z,6.80
2023-05-14T05:57:32.570Z,6.90
2023-05-14T05:59:05.648Z,7.00
2023-05-14T06:00:38.821Z,7.00
2023-05-14T06:02:11.949Z,7.10
2023-05-14T06:03:48.376Z,7.20
2023-05-14T06:05:22.020Z,7.30
2023-05-14T06:06:55.433Z,7.30
2023-05-14T06:08:28.505Z,7.40
2023-05-14T06:10:00.748Z,7.50
2023-05-14T06:11:33.895Z,7.50
2023-05-14T06:13:06.988Z,7.60
2023-05-14T06:14:40.111Z,7.70
2023-05-14T06:16:12.289Z,7.70
2023-05-14T06:17:45.808Z,7.80
2023-05-14T06:19:20.313Z,7.90
2023-05-14T06:20:53.574Z,8.00
2023-05-14T06:22:26.633Z,8.00
2023-05-14T06:23:59.744Z,8.10
2023-05-14T06:25:32.850Z,8.10
2023-05-14T06:27:06.432Z,8.20
2023-05-14T06:28:38.584Z,8.20
2023-05-14T06:30:13.579Z,8.30
2023-05-14T06:31:46.947Z,8.40
2023-05-14T06:33:21.084Z,8.40
2023-05-14T06:34:55.468Z,8.50
2023-05-14T06:36:28.705Z,8.60
2023-05-14T06:38:01.772Z,8.60
2023-05-14T06:39:34.842Z,8.70
2023-05-14T06:41:07.890Z,8.80
2023-05-14T06:42:40.935Z,8.80
2023-05-14T06:44:13.094Z,8.90
2023-05-14T06:45:49.931Z,9.00
2023-05-14T06:47:23.037Z,9.10
2023-05-14T06:48:59.222Z,9.10
2023-05-14T06:50:34.007Z,9.20
2023-05-14T06:52:07.985Z,9.30
2023-05-14T06:53:41.751Z,9.40
2023-05-14T06:55:15.161Z,9.50
2023-05-14T06:56:48.400Z,9.60
2023-05-14T06:58:21.738Z,9.70
2023-05-14T06:59:54.869Z,9.80
2023-05-14T07:01:28.056Z,9.90
2023-05-14T07:03:01.329Z,10.00
2023-05-14T07:04:34.547Z,10.10
2023-05-14T07:06:09.932Z,10.20
2023-05-14T07:07:43.970Z,10.20
2023-05-14T07:09:17.636Z,10.30
2023-05-14T07:10:49.769Z,10.40
2023-05-14T07:12:22.868Z,10.50
2023-05-14T07:13:56.085Z,10.60
2023-05-14T07:15:29.224Z,10.70
2023-05-14T07:17:02.359Z,10.80
2023-05-14T07:18:35.529Z,10.90
2023-05-14T07:20:10.568Z,11.00
2023-05-14T07:21:45.042Z,11.10
2023-05-14T07:23:19.899Z,11.20
2023-05-14T07:24:52.308Z,11.30
2023-05-14T07:26:26.469Z,11.40
2023-05-14T07:27:58.594Z,11.50
2023-05-14T07:29:34.791Z,11.60
2023-05-14T07:31:08.911Z,11.70
2023-05-14T07:32:42.382Z,11.80
2023-05-14T07:34:15.934Z,11.90
2023-05-14T07:35:49.160Z,12.00
2023-05-14T07:37:25.796Z,12.10
2023-05-14T07:38:59.099Z,12.20
2023-05-14T07:40:32.193Z,12.30
2023-05-14T07:42:06.458Z,12.40
2023-05-14T07:43:40.435Z,12.60
2023-05-14T07:45:13.633Z,12.70
2023-05-14T07:46:46.844Z,12.80
2023-05-14T07:48:23.341Z,12.90
2023-05-14T07:50:13.750Z,13.00
2023-05-14T07:52:04.354Z,13.20
2023-05-14T07:53:42.175Z,13.30
2023-05-14T07:55:15.493Z,13.40
2023-05-14T07:57:01.970Z,13.60
2023-05-14T07:58:44.958Z,13.70
2023-05-14T08:00:25.080Z,13.80
2023-05-14T08:02:02.905Z,14.00
2023-05-14T08:03:38.931Z,14.10
2023-05-14T08:05:12.556Z,14.20
2023-05-14T08:06:45.923Z,14.30
2023-05-14T08:08:19.456Z,14.40
2023-05-14T08:09:54.249Z,14.60
2023-05-14T08:11:27.404Z,14.70
2023-05-14T08:13:00.803Z,14.80
2023-05-14T08:14:33.979Z,15.00
2023-05-14T08:16:08.272Z,15.00
2023-05-14T08:17:41.582Z,15.10
2023-05-14T08:19:16.598Z,15.30
2023-05-14T08:20:50.054Z,15.40
2023-05-14T08:22:23.182Z,15.50
2023-05-14T08:23:56.392Z,15.60
2023-05-14T08:25:30.969Z,15.70
2023-05-14T08:27:04.205Z,15.80
2023-05-14T08:28:37.321Z,15.90
2023-05-14T08:30:11.426Z,16.00
2023-05-14T08:31:44.542Z,16.10
2023-05-14T08:33:18.025Z,16.20
2023-05-14T08:34:51.997Z,16.30
2023-05-14T08:36:25.278Z,16.40
2023-05-14T08:37:58.374Z,16.50
2023-05-14T08:39:31.610Z,16.60
2023-05-14T08:41:08.587Z,16.70
2023-05-14T08:42:42.097Z,16.80
2023-05-14T08:44:21.214Z,16.90
2023-05-14T08:45:59.463Z,17.00
2023-05-14T08:47:32.872Z,17.10
2023-05-14T08:49:20.712Z,17.10
2023-05-14T08:50:54.068Z,17.20
2023-05-14T08:52:27.479Z,17.30
2023-05-14T08:54:03.839Z,17.40
2023-05-14T08:55:39.141Z,17.60
2023-05-14T08:57:14.966Z,17.60
2023-05-14T08:58:48.222Z,17.70
2023-05-14T09:00:22.551Z,17.80
2023-05-14T09:02:00.572Z,17.90
2023-05-14T09:03:34.811Z,18.00
2023-05-14T09:05:10.396Z,18.00
2023-05-14T09:06:44.993Z,18.10
2023-05-14T09:08:18.035Z,18.20
2023-05-14T09:10:20.926Z,18.30
2023-05-14T09:11:56.009Z,18.40
2023-05-14T09:13:30.980Z,18.40
2023-05-14T09:15:04.758Z,18.40
2023-05-14T09:16:39.921Z,18.50
2023-05-14T09:18:13.686Z,18.60
2023-05-14T09:19:48.906Z,18.60
2023-05-14T09:21:22.053Z,18.70
2023-05-14T09:22:55.276Z,18.70
2023-05-14T09:24:30.173Z,18.80
2023-05-14T09:26:06.492Z,18.80
2023-05-14T09:27:40.030Z,18.90
2023-05-14T09:29:15.092Z,19.00
2023-05-14T09:30:51.546Z,19.00
2023-05-14T09:32:25.131Z,19.10
2023-05-14T09:33:59.087Z,19.10
2023-05-14T09:35:32.559Z,19.20
2023-05-14T09:37:07.713Z,19.20
2023-05-14T09:38:40.796Z,19.30
2023-05-14T09:40:14.555Z,19.30
2023-05-14T09:41:48.082Z,19.40
2023-05-14T09:43:21.633Z,19.40
2023-05-14T09:44:56.772Z,19.50
2023-05-14T09:46:31.751Z,19.60
2023-05-14T09:48:05.582Z,19.70
2023-05-14T09:49:38.779Z,19.70
2023-05-14T09:51:12.024Z,19.80
2023-05-14T09:52:45.193Z,19.80
2023-05-14T09:54:18.699Z,19.80
2023-05-14T09:55:51.856Z,19.90
2023-05-14T09:57:26.791Z,19.90
2023-05-14T09:59:00.006Z,19.90
2023-05-14T10:00:35.646Z,19.90
2023-05-14T10:02:18.265Z,20.00
2023-05-14T10:03:51.938Z,20.00
2023-05-14T10:05:26.775Z,20.00
2023-05-14T10:07:00.773Z,20.00
2023-05-14T10:08:36.883Z,20.10
2023-05-14T10:10:16.616Z,20.00
2023-05-14T10:11:53.842Z,20.10
2023-05-14T10:13:37.218Z,20.10
2023-05-14T10:15:18.550Z,20.10
2023-05-14T10:16:54.857Z,20.10
2023-05-14T10:18:33.442Z,20.20
2023-05-14T10:20:10.639Z,20.20
2023-05-14T10:21:48.700Z,20.20
2023-05-14T10:23:22.260Z,20.10
2023-05-14T10:24:56.925Z,20.10
2023-05-14T10:26:30.043Z,20.10
2023-05-14T10:28:04.433Z,20.10
2023-05-14T10:29:38.384Z,20.10
2023-05-14T10:31:11.917Z,20.10
2023-05-14T10:32:46.329Z,20.10
2023-05-14T10:34:41.475Z,20.00
2023-05-14T10:36:15.187Z,20.00
2023-05-14T10:37:48.657Z,20.00
2023-05-14T10:39:21.824Z,20.00
2023-05-14T10:40:58.899Z,20.00
2023-05-14T10:42:36.134Z,20.00
2023-05-14T10:44:10.979Z,19.90
2023-05-14T10:45:46.013Z,19.90
2023-05-14T10:47:19.809Z,19.90
2023-05-14T10:48:54.305Z,19.90
2023-05-14T10:50:28.036Z,19.80
2023-05-14T10:52:02.677Z,19.80
2023-05-14T10:53:37.822Z,19.80
2023-05-14T10:55:14.420Z,19.80
2023-05-14T10:56:47.704Z,19.90
2023-05-14T10:58:21.813Z,19.90
2023-05-14T10:59:56.540Z,19.90
2023-05-14T11:01:30.387Z,19.90
2023-05-14T11:03:07.161Z,20.00
2023-05-14T11:04:42.548Z,20.10
2023-05-14T11:06:16.919Z,20.10
2023-05-14T11:07:51.338Z,20.10
2023-05-14T11:09:26.565Z,20.20
2023-05-14T11:11:00.460Z,20.30
2023-05-14T11:12:34.979Z,20.30
2023-05-14T11:14:10.173Z,20.40
2023-05-14T11:15:47.391Z,20.50
2023-05-14T11:17:20.100Z,20.50
2023-05-14T11:19:03.866Z,20.60
2023-05-14T11:20:39.077Z,20.70
2023-05-14T11:22:13.640Z,20.70
2023-05-14T11:23:48.109Z,20.80
2023-05-14T11:25:22.699Z,20.80
2023-05-14T11:26:56.284Z,20.90
2023-05-14T11:28:30.221Z,20.90
2023-05-14T11:30:04.250Z,20.90
2023-05-14T11:31:39.669Z,21.00
2023-05-14T11:33:13.744Z,21.00
2023-05-14T11:34:48.339Z,21.00
2023-05-14T11:36:23.164Z,21.10
2023-05-14T11:37:56.518Z,21.10
2023-05-14T11:39:28.655Z,21.20
2023-05-14T11:41:01.738Z,21.20
2023-05-14T11:42:34.868Z,21.20
2023-05-14T11:44:09.200Z,21.20
2023-05-14T11:45:42.504Z,21.30
2023-05-14T11:47:15.798Z,21.30
2023-05-14T11:48:49.248Z,21.30
2023-05-14T11:50:23.192Z,21.30
2023-05-14T11:52:02.478Z,21.30
2023-05-14T11:53:35.341Z,21.30
2023-05-14T11:55:13.131Z,21.30
2023-05-14T11:56:52.283Z,21.30
2023-05-14T11:58:26.099Z,21.20
2023-05-14T11:59:59.349Z,21.20
2023-05-14T12:01:37.786Z,21.20
2023-05-14T12:03:11.447Z,21.10
2023-05-14T12:04:46.028Z,21.10
2023-05-14T12:06:19.952Z,21.00
2023-05-14T12:07:56.240Z,21.00
2023-05-14T12:09:29.362Z,21.00
2023-05-14T12:11:02.244Z,20.90
2023-05-14T12:12:37.550Z,20.80
2023-05-14T12:14:17.176Z,20.80
2023-05-14T12:15:57.450Z,20.80
2023-05-14T12:17:30.939Z,20.70
2023-05-14T12:19:04.189Z,20.70
2023-05-14T12:20:37.547Z,20.70
2023-05-14T12:22:11.815Z,20.60
2023-05-14T12:23:46.236Z,20.60
2023-05-14T12:25:19.891Z,20.70
2023-05-14T12:26:55.406Z,20.70
2023-05-14T12:28:28.882Z,20.70
2023-05-14T12:30:20.067Z,20.70
2023-05-14T12:31:54.295Z,20.80
2023-05-14T12:33:28.462Z,20.90
2023-05-14T12:35:02.041Z,20.90
2023-05-14T12:36:35.345Z,21.00
2023-05-14T12:38:08.498Z,21.00
2023-05-14T12:39:42.881Z,21.00
2023-05-14T12:41:16.010Z,21.10
2023-05-14T12:42:49.165Z,21.10
2023-05-14T12:44:37.413Z,21.10
2023-05-14T12:46:27.431Z,21.10
2023-05-14T12:48:00.633Z,21.10
2023-05-14T12:49:33.792Z,21.10
2023-05-14T12:51:07.133Z,21.10
2023-05-14T12:52:40.412Z,21.10
2023-05-14T12:54:15.703Z,21.00
2023-05-14T12:55:50.180Z,21.00
2023-05-14T12:57:23.398Z,21.00
2023-05-14T12:58:57.195Z,21.00
2023-05-14T13:00:30.598Z,21.00
2023-05-14T13:02:03.707Z,20.90
2023-05-14T13:03:36.816Z,20.90
2023-05-14T13:05:10.585Z,20.90
2023-05-14T13:06:44.242Z,20.90
2023-05-14T13:08:17.790Z,20.90
2023-05-14T13:09:51.078Z,20.90
2023-05-14T13:11:25.608Z,20.90
2023-05-14T13:12:58.604Z,20.90
2023-05-14T13:14:31.771Z,20.90
2023-05-14T13:16:04.553Z,20.80
2023-05-14T13:17:38.019Z,20.90
2023-05-14T13:19:11.370Z,20.90
2023-05-14T13:20:45.052Z,20.80
2023-05-14T13:22:18.854Z,20.80
2023-05-14T13:23:51.952Z,20.80
2023-05-14T13:25:25.338Z,20.80
2023-05-14T13:26:59.909Z,20.80
2023-05-14T13:28:32.983Z,20.80
2023-05-14T13:30:07.746Z,20.80
2023-05-14T13:31:41.219Z,20.80
2023-05-14T13:33:14.415Z,20.80
2023-05-14T13:34:47.804Z,20.80
2023-05-14T13:36:21.187Z,20.80
2023-05-14T13:37:54.311Z,20.80
2023-05-14T13:39:27.754Z,20.80
2023-05-14T13:41:02.770Z,20.80
2023-05-14T13:42:39.536Z,20.90
2023-05-14T13:44:12.667Z,21.00
2023-05-14T13:45:45.832Z,21.00
2023-05-14T13:47:18.990Z,21.00
2023-05-14T13:48:52.215Z,21.00
2023-05-14T13:50:25.493Z,21.00
2023-05-14T13:51:58.805Z,21.10
2023-05-14T13:53:31.938Z,21.10
2023-05-14T13:55:06.065Z,21.10
2023-05-14T13:56:39.164Z,21.10
2023-05-14T13:58:13.719Z,21.10
2023-05-14T13:59:47.759Z,21.10
2023-05-14T14:01:20.873Z,21.00
2023-05-14T14:02:54.375Z,21.00
2023-05-14T14:04:28.926Z,21.00
2023-05-14T14:06:02.019Z,21.00
2023-05-14T14:07:34.177Z,21.00
2023-05-14T14:09:07.297Z,20.90
2023-05-14T14:10:41.306Z,20.90
2023-05-14T14:12:14.474Z,20.90
2023-05-14T14:13:49.086Z,20.90
2023-05-14T14:15:22.723Z,20.80
2023-05-14T14:16:55.942Z,20.80
2023-05-14T14:18:28.120Z,20.80
2023-05-14T14:20:01.237Z,20.80
2023-05-14T14:21:35.182Z,20.80
2023-05-14T14:23:08.455Z,20.80
2023-05-14T14:24:41.567Z,20.80
2023-05-14T14:26:14.812Z,20.70
2023-05-14T14:27:48.050Z,20.70
2023-05-14T14:29:23.949Z,20.70
2023-05-14T14:30:57.097Z,20.60
2023-05-14T14:32:30.757Z,20.60
2023-05-14T14:34:03.965Z,20.50
2023-05-14T14:35:37.366Z,20.50
2023-05-14T14:37:10.576Z,20.50
2023-05-14T14:38:43.654Z,20.50
2023-05-14T14:40:18.108Z,20.40
2023-05-14T14:41:51.295Z,20.40
2023-05-14T14:43:25.160Z,20.40
2023-05-14T14:44:59.577Z,20.30
2023-05-14T14:46:34.127Z,20.30
2023-05-14T14:48:28.193Z,20.30
2023-05-14T14:50:01.543Z,20.30
2023-05-14T14:51:34.888Z,20.20
2023-05-14T14:53:07.956Z,20.20
2023-05-14T14:54:41.020Z,20.20
2023-05-14T14:56:14.599Z,20.20
2023-05-14T14:57:47.644Z,20.10
2023-05-14T14:59:20.816Z,20.10
2023-05-14T15:00:57.445Z,20.10
2023-05-14T15:02:31.486Z,20.10
2023-05-14T15:04:04.828Z,20.10
2023-05-14T15:05:38.348Z,20.10
2023-05-14T15:07:11.487Z,20.20
2023-05-14T15:08:44.583Z,20.10
2023-05-14T15:10:17.686Z,20.20
2023-05-14T15:11:50.918Z,20.20
2023-05-14T15:13:24.383Z,20.20
2023-05-14T15:14:57.518Z,20.30
2023-05-14T15:16:31.902Z,20.30
2023-05-14T15:18:06.143Z,20.30
2023-05-14T15:19:39.404Z,20.40
2023-05-14T15:21:12.557Z,20.40
2023-05-14T15:22:46.010Z,20.50
2023-05-14T15:24:19.569Z,20.60
2023-05-14T15:25:52.667Z,20.60
2023-05-14T15:27:26.085Z,20.70
2023-05-14T15:28:59.225Z,20.70
2023-05-14T15:30:32.411Z,20.80
2023-05-14T15:32:08.202Z,20.80
2023-05-14T15:33:42.314Z,20.90
2023-05-14T15:35:15.576Z,21.00
2023-05-14T15:36:48.666Z,21.10
2023-05-14T15:38:21.728Z,21.10
2023-05-14T15:39:54.888Z,21.20
2023-05-14T15:41:28.746Z,21.20
2023-05-14T15:43:02.289Z,21.30
2023-05-14T15:44:38.622Z,21.30
2023-05-14T15:46:12.581Z,21.40
2023-05-14T15:47:47.174Z,21.50
2023-05-14T15:49:20.249Z,21.50
2023-05-14T15:50:53.666Z,21.50
2023-05-14T15:52:26.472Z,21.50
2023-05-14T15:53:59.672Z,21.60
2023-05-14T15:55:32.954Z,21.60
2023-05-14T15:57:06.679Z,21.60
2023-05-14T15:58:38.799Z,21.60
2023-05-14T16:00:13.563Z,21.60
2023-05-14T16:01:46.910Z,21.60
2023-05-14T16:03:21.457Z,21.60
2023-05-14T16:04:53.526Z,21.70
2023-05-14T16:06:27.106Z,21.70
2023-05-14T16:08:00.543Z,21.70
2023-05-14T16:09:34.222Z,21.70
2023-05-14T16:11:07.892Z,21.70
2023-05-14T16:12:41.012Z,21.70
2023-05-14T16:14:14.336Z,21.70
2023-05-14T16:15:48.107Z,21.70
2023-05-14T16:17:21.305Z,21.60
2023-05-14T16:18:55.733Z,21.60
2023-05-14T16:20:28.960Z,21.60
2023-05-14T16:22:02.072Z,21.50
2023-05-14T16:23:35.782Z,21.50
2023-05-14T16:25:09.449Z,21.40
2023-05-14T16:26:42.707Z,21.40
2023-05-14T16:28:15.815Z,21.30
2023-05-14T16:29:48.911Z,21.30
2023-05-14T16:31:22.101Z,21.20
2023-05-14T16:32:55.400Z,21.20
2023-05-14T16:34:29.829Z,21.20
2023-05-14T16:36:03.014Z,21.10
2023-05-14T16:37:36.587Z,21.10
2023-05-14T16:39:11.362Z,21.00
2023-05-14T16:40:44.464Z,21.00
2023-05-14T16:42:17.649Z,21.00
2023-05-14T16:43:51.094Z,20.90
2023-05-14T16:45:24.484Z,20.90
2023-05-14T16:46:57.866Z,20.80
2023-05-14T16:48:31.295Z,20.80
2023-05-14T16:50:06.939Z,20.80
2023-05-14T16:51:42.985Z,20.80
2023-05-14T16:53:16.317Z,20.70
2023-05-14T16:54:49.439Z,20.70
2023-05-14T16:56:22.631Z,20.70
2023-05-14T16:57:56.827Z,20.60
2023-05-14T16:59:29.872Z,20.60
2023-05-14T17:01:03.002Z,20.50
2023-05-14T17:02:36.343Z,20.50
2023-05-14T17:04:09.777Z,20.40
2023-05-14T17:05:44.211Z,20.40
2023-05-14T17:07:17.415Z,20.40
2023-05-14T17:08:50.706Z,20.30
2023-05-14T17:10:25.110Z,20.30
2023-05-14T17:11:58.640Z,20.20
2023-05-14T17:13:31.829Z,20.20
2023-05-14T17:15:07.116Z,20.10
2023-05-14T17:16:42.200Z,20.10
2023-05-14T17:18:15.456Z,20.10
2023-05-14T17:19:48.593Z,20.00
2023-05-14T17:21:23.000Z,20.00
2023-05-14T17:22:56.157Z,20.00
2023-05-14T17:24:30.301Z,19.90
2023-05-14T17:26:03.857Z,19.90
2023-05-14T17:27:36.940Z,19.90
2023-05-14T17:29:10.050Z,19.80
2023-05-14T17:30:43.505Z,19.80
2023-05-14T17:32:16.691Z,19.80
2023-05-14T17:33:50.089Z,19.70
2023-05-14T17:35:24.477Z,19.70
2023-05-14T17:36:59.037Z,19.60
2023-05-14T17:38:32.217Z,19.60
2023-05-14T17:40:06.801Z,19.60
2023-05-14T17:41:41.893Z,19.60
2023-05-14T17:43:15.241Z,19.50
2023-05-14T17:44:48.448Z,19.50
2023-05-14T17:46:21.609Z,19.50
2023-05-14T17:47:54.805Z,19.50
2023-05-14T17:49:27.932Z,19.40
2023-05-14T17:51:01.067Z,19.40
2023-05-14T17:52:37.620Z,19.40
2023-05-14T17:54:11.011Z,19.30
2023-05-14T17:55:44.471Z,19.20
2023-05-14T17:57:17.939Z,19.20
2023-05-14T17:58:51.282Z,19.20
2023-05-14T18:00:25.418Z,19.20
2023-05-14T18:01:58.507Z,19.10
2023-05-14T18:03:32.148Z,19.10
2023-05-14T18:05:06.426Z,19.10
2023-05-14T18:06:39.748Z,19.00
2023-05-14T18:08:14.481Z,19.00
2023-05-14T18:09:47.728Z,19.00
2023-05-14T18:11:21.529Z,19.00
2023-05-14T18:12:54.641Z,18.90
2023-05-14T18:14:27.800Z,18.90
2023-05-14T18:16:01.716Z,18.80
2023-05-14T18:17:34.893Z,18.80
2023-05-14T18:19:08.022Z,18.80
2023-05-14T18:20:41.076Z,18.70
2023-05-14T18:22:14.236Z,18.70
2023-05-14T18:23:48.645Z,18.60
2023-05-14T18:25:21.892Z,18.60
2023-05-14T18:26:56.062Z,18.60
2023-05-14T18:28:29.319Z,18.50
2023-05-14T18:30:02.956Z,18.40
2023-05-14T18:31:36.113Z,18.40
2023-05-14T18:33:09.332Z,18.40
2023-05-14T18:34:42.487Z,18.30
2023-05-14T18:36:15.674Z,18.20
2023-05-14T18:37:48.845Z,18.20
2023-05-14T18:39:23.780Z,18.20
2023-05-14T18:40:56.936Z,18.10
2023-05-14T18:42:29.992Z,18.00
2023-05-14T18:44:03.120Z,18.00
2023-05-14T18:45:36.335Z,17.90
2023-05-14T18:47:09.581Z,17.80
2023-05-14T18:48:42.893Z,17.80
2023-05-14T18:50:16.100Z,17.70
2023-05-14T18:51:49.241Z,17.70
2023-05-14T18:53:21.410Z,17.60
2023-05-14T18:54:55.995Z,17.50
2023-05-14T18:56:29.022Z,17.40
2023-05-14T18:58:02.156Z,17.40
2023-05-14T18:59:35.247Z,17.40
2023-05-14T19:01:08.420Z,17.30
2023-05-14T19:02:42.584Z,17.20
2023-05-14T19:04:15.932Z,17.10
2023-05-14T19:05:50.537Z,17.10
2023-05-14T19:07:24.123Z,17.00
2023-05-14T19:08:58.455Z,17.00
2023-05-14T19:10:34.719Z,16.90
2023-05-14T19:12:09.504Z,16.90
2023-05-14T19:13:45.844Z,16.80
2023-05-14T19:15:19.500Z,16.70
2023-05-14T19:16:52.654Z,16.70
2023-05-14T19:18:26.292Z,16.60
2023-05-14T19:19:59.562Z,16.60
2023-05-14T19:21:32.714Z,16.50
2023-05-14T19:23:06.333Z,16.40
2023-05-14T19:24:40.040Z,16.40
2023-05-14T19:26:14.511Z,16.30
2023-05-14T19:27:51.120Z,16.30
2023-05-14T19:29:24.827Z,16.20
2023-05-14T19:30:57.872Z,16.20
2023-05-14T19:32:30.956Z,16.20
2023-05-14T19:34:04.160Z,16.10
2023-05-14T19:35:37.359Z,16.00
2023-05-14T19:37:10.998Z,16.00
2023-05-14T19:38:44.100Z,15.90
2023-05-14T19:40:17.369Z,15.90
2023-05-14T19:41:51.750Z,15.80
2023-05-14T19:43:25.528Z,15.80
2023-05-14T19:44:58.665Z,15.70
2023-05-14T19:46:31.928Z,15.70
2023-05-14T19:48:06.933Z,15.60
2023-05-14T19:49:41.245Z,15.60
2023-05-14T19:51:14.412Z,15.50
2023-05-14T19:52:47.594Z,15.50
2023-05-14T19:54:20.764Z,15.40
2023-05-14T19:55:53.882Z,15.40
2023-05-14T19:57:29.208Z,15.40
2023-05-14T19:59:02.493Z,15.30
2023-05-14T20:00:36.790Z,15.20
2023-05-14T20:02:22.681Z,15.20
2023-05-14T20:03:55.760Z,15.20
2023-05-14T20:05:29.117Z,15.10
2023-05-14T20:07:02.291Z,15.10
2023-05-14T20:08:35.467Z,15.10
2023-05-14T20:10:10.080Z,15.00
2023-05-14T20:11:43.214Z,15.00
2023-05-14T20:13:17.679Z,15.00
2023-05-14T20:14:50.867Z,15.00
2023-05-14T20:16:24.576Z,14.90
2023-05-14T20:17:58.420Z,14.90
2023-05-14T20:19:31.533Z,14.90
2023-05-14T20:21:05.478Z,14.80
2023-05-14T20:22:39.910Z,14.80
2023-05-14T20:24:13.121Z,14.80
2023-05-14T20:25:46.452Z,14.80
2023-05-14T20:27:19.711Z,14.70
2023-05-14T20:28:55.062Z,14.70